Time;durP1;ratioP1;P1;durP2;ratioP2;P2;SDS_P1;SDS_P2;PMS_P1;PMS_P2;Temp;Humidity;BMP_temperature;BMP_pressure;BME280_temperature;BME280_humidity;BME280_pressure;Samples;Min_cycle;Max_cycle;Signal;HPM_P1;HPM_P2
2021/01/28 00:02:14;;;;;;;41.20;18.38;;;;;;;7.98;77.54;99107.22;5054684;28;20128;-80
2021/01/28 00:04:40;;;;;;;32.60;17.42;;;;;;;7.98;77.73;99112.47;5054804;28;20561;-80
2021/01/28 00:07:07;;;;;;;37.30;17.98;;;;;;;7.99;77.46;99111.53;5054331;28;20494;-80
2021/01/28 00:09:33;;;;;;;34.60;18.17;;;;;;;7.99;77.66;99113.31;5054618;28;20045;-80
2021/01/28 00:12:00;;;;;;;33.13;16.70;;;;;;;8.01;77.74;99120.16;5054192;28;20581;-79
2021/01/28 00:14:26;;;;;;;30.92;15.45;;;;;;;8.00;77.53;99112.38;5054582;28;20056;-80
2021/01/28 00:16:52;;;;;;;28.55;14.90;;;;;;;8.01;77.75;99103.56;5054531;28;20045;-81
2021/01/28 00:19:19;;;;;;;36.60;16.65;;;;;;;8.02;77.73;99100.00;5054460;28;20057;-81
2021/01/28 00:21:45;;;;;;;32.92;17.10;;;;;;;8.01;77.63;99103.56;5054207;28;20497;-80
2021/01/28 00:24:11;;;;;;;38.30;17.55;;;;;;;8.02;77.63;99102.63;5053871;28;20071;-80
2021/01/28 00:26:38;;;;;;;36.75;16.70;;;;;;;8.02;77.72;99100.00;5053913;28;20049;-78
2021/01/28 00:29:04;;;;;;;35.55;16.02;;;;;;;8.03;77.74;99091.22;5054020;28;20061;-80
2021/01/28 00:31:32;;;;;;;32.92;16.77;;;;;;;8.03;77.48;99091.22;5054246;28;20080;-80
2021/01/28 00:33:58;;;;;;;32.90;15.45;;;;;;;8.04;77.75;99079.81;5053692;28;20115;-80
2021/01/28 00:36:25;;;;;;;34.10;16.42;;;;;;;8.05;77.81;99094.59;5054251;28;20128;-80
2021/01/28 00:38:51;;;;;;;33.47;16.40;;;;;;;8.06;77.50;99101.53;5054136;28;20067;-80
2021/01/28 00:41:27;;;;;;;26.67;13.07;;;;;;;8.06;77.80;99097.13;5054196;28;20049;-79
2021/01/28 00:43:53;;;;;;;20.63;11.20;;;;;;;8.07;77.49;99092.72;5053541;28;20136;-81
2021/01/28 00:46:20;;;;;;;17.30;9.57;;;;;;;8.08;77.06;99099.69;5054072;28;20128;-81
2021/01/28 00:48:48;;;;;;;19.67;9.27;;;;;;;8.05;76.99;99095.47;5053858;28;20056;-81
2021/01/28 00:51:15;;;;;;;16.98;8.88;;;;;;;8.06;76.77;99104.16;5053705;28;20055;-81
2021/01/28 00:53:41;;;;;;;15.10;8.35;;;;;;;8.05;76.73;99094.59;5053487;28;20084;-81
2021/01/28 00:56:08;;;;;;;12.57;7.13;;;;;;;8.04;76.81;99100.78;5053613;28;20045;-79
2021/01/28 00:58:35;;;;;;;12.35;6.78;;;;;;;8.03;76.94;99099.94;5036593;28;20048;-80
2021/01/28 01:01:02;;;;;;;13.73;7.72;;;;;;;8.01;76.44;99099.19;5035898;28;20044;-81
2021/01/28 01:03:29;;;;;;;11.05;6.63;;;;;;;8.01;76.59;99106.19;5053219;28;20049;-80
2021/01/28 01:05:55;;;;;;;12.90;6.63;;;;;;;7.99;76.75;99095.78;5052841;28;20049;-81
2021/01/28 01:08:26;;;;;;;13.48;7.43;;;;;;;7.97;76.67;99088.94;5053459;28;20067;-81
2021/01/28 01:10:56;;;;;;;11.23;6.53;;;;;;;7.97;76.57;99088.94;5053535;28;20056;-80
2021/01/28 01:13:28;;;;;;;12.60;6.82;;;;;;;7.95;76.55;99089.91;5053135;28;20052;-81
2021/01/28 01:15:55;;;;;;;12.77;6.33;;;;;;;7.97;76.87;99091.56;5053185;28;20049;-80
2021/01/28 01:18:33;;;;;;;11.90;5.85;;;;;;;7.93;76.32;99089.13;5053486;28;20283;-81
2021/01/28 01:21:00;;;;;;;13.32;5.28;;;;;;;7.96;76.48;99080.22;5053556;28;20053;-81
2021/01/28 01:23:27;;;;;;;11.07;5.47;;;;;;;7.94;76.56;99085.59;5052901;28;20136;-81
2021/01/28 01:25:56;;;;;;;11.07;6.00;;;;;;;7.95;76.70;99079.41;5092333;22;20053;-80
2021/01/28 01:28:22;;;;;;;12.48;6.22;;;;;;;7.93;76.30;99078.63;5070289;28;20051;-80
2021/01/28 01:30:49;;;;;;;11.98;6.18;;;;;;;7.92;76.33;99074.34;5073312;28;20052;-80
2021/01/28 01:33:15;;;;;;;15.27;6.13;;;;;;;7.92;76.34;99066.47;5072864;28;20055;-81
2021/01/28 01:35:41;;;;;;;12.93;5.93;;;;;;;7.91;76.61;99069.19;5072539;28;20408;-80
2021/01/28 01:38:08;;;;;;;10.88;6.07;;;;;;;7.90;76.66;99073.59;5053098;28;20060;-81
2021/01/28 01:40:38;;;;;;;9.60;5.57;;;;;;;7.90;76.46;99077.97;5053065;28;20082;-80
2021/01/28 01:43:06;;;;;;;11.80;5.63;;;;;;;7.90;76.40;99070.97;5052868;28;20505;-80
2021/01/28 01:45:38;;;;;;;11.85;6.03;;;;;;;7.89;76.33;99069.25;5052823;28;20107;-80
2021/01/28 01:48:22;;;;;;;8.85;5.40;;;;;;;7.87;76.05;99070.28;5053129;28;20118;-80
2021/01/28 01:50:51;;;;;;;8.23;4.60;;;;;;;7.89;75.98;99068.44;5052929;28;20049;-80
2021/01/28 01:53:24;;;;;;;10.07;4.45;;;;;;;7.87;75.82;99072.91;5052739;28;20053;-81
2021/01/28 01:56:16;;;;;;;12.57;5.93;;;;;;;7.83;75.98;99064.38;5052849;28;20145;-81
2021/01/28 01:58:50;;;;;;;8.93;5.07;;;;;;;7.82;75.80;99054.84;5041579;28;20045;-81
2021/01/28 02:01:22;;;;;;;9.48;4.57;;;;;;;7.82;75.93;99044.34;5035212;28;20065;-81
2021/01/28 02:03:52;;;;;;;10.30;5.90;;;;;;;7.83;75.96;99038.19;5052597;28;20048;-81
2021/01/28 02:06:22;;;;;;;10.25;5.50;;;;;;;7.84;76.24;99039.03;5052651;28;20136;-81
2021/01/28 02:08:52;;;;;;;8.82;5.65;;;;;;;7.80;76.45;99033.97;5034994;28;20049;-81
2021/01/28 02:11:19;;;;;;;12.48;5.45;;;;;;;7.81;76.46;99024.31;5052717;28;20056;-81
2021/01/28 02:13:47;;;;;;;18.73;6.45;;;;;;;7.81;76.16;99024.31;5052458;28;20049;-80
2021/01/28 02:16:16;;;;;;;11.13;5.78;;;;;;;7.80;76.47;99027.88;5034815;28;20063;-81
2021/01/28 02:18:44;;;;;;;10.93;5.97;;;;;;;7.79;76.14;99029.66;5056152;28;20574;-81
2021/01/28 02:21:33;;;;;;;9.88;6.28;;;;;;;7.76;76.04;99026.34;5056236;28;20481;-81
2021/01/28 02:24:01;;;;;;;11.23;6.20;;;;;;;7.77;76.17;99015.78;5056065;28;20489;-81
2021/01/28 02:26:29;;;;;;;10.45;6.20;;;;;;;7.78;76.29;99022.72;5056084;28;20052;-81
2021/01/28 02:28:55;;;;;;;10.80;5.43;;;;;;;7.77;76.50;99012.31;5055986;28;20048;-81
2021/01/28 02:31:23;;;;;;;10.57;6.25;;;;;;;7.76;76.32;99019.34;5056067;28;20485;-81
2021/01/28 02:33:55;;;;;;;10.20;5.85;;;;;;;7.74;76.04;99013.34;5056120;28;20053;-81
2021/01/28 02:36:34;;;;;;;12.48;6.20;;;;;;;7.73;75.89;99013.44;5056011;28;20048;-81
2021/01/28 02:39:00;;;;;;;10.70;5.65;;;;;;;7.77;76.27;99001.84;5056010;28;20463;-80
2021/01/28 02:41:28;;;;;;;8.18;5.07;;;;;;;7.77;76.50;99012.31;5055751;28;20052;-81
2021/01/28 02:43:54;;;;;;;11.93;5.97;;;;;;;7.76;76.13;99006.25;5055644;28;20493;-81
2021/01/28 02:46:21;;;;;;;10.02;5.57;;;;;;;7.75;76.28;99012.44;5055970;28;20041;-81
2021/01/28 02:48:49;;;;;;;9.65;5.25;;;;;;;7.75;76.17;99001.09;5055942;28;20051;-80
2021/01/28 02:51:15;;;;;;;8.55;5.07;;;;;;;7.74;76.22;98996.78;5055671;28;20052;-80
2021/01/28 02:53:47;;;;;;;11.25;5.25;;;;;;;7.72;75.82;99004.75;5055340;28;20087;-81
2021/01/28 02:56:14;;;;;;;7.60;5.07;;;;;;;7.72;76.02;99004.75;5055655;28;20049;-80
2021/01/28 02:58:40;;;;;;;10.20;5.88;;;;;;;7.72;76.02;98996.03;5055623;28;20055;-81
2021/01/28 03:01:08;;;;;;;12.23;5.45;;;;;;;7.71;76.23;99002.19;5055809;28;20103;-80
2021/01/28 03:03:35;;;;;;;12.07;5.38;;;;;;;7.72;76.19;98994.25;5037633;28;20064;-80
2021/01/28 03:06:02;;;;;;;9.93;4.00;;;;;;;7.72;76.14;98985.53;5055476;28;20060;-81
2021/01/28 03:08:29;;;;;;;10.27;4.88;;;;;;;7.72;76.20;98975.91;5055229;28;20053;-80
2021/01/28 03:10:55;;;;;;;15.68;5.10;;;;;;;7.71;76.54;98976.84;5055423;28;20053;-81
2021/01/28 03:13:22;;;;;;;11.60;5.00;;;;;;;7.71;76.08;98971.63;5055049;28;20052;-81
2021/01/28 03:15:48;;;;;;;9.40;4.85;;;;;;;7.72;76.14;98959.34;5055310;28;20079;-81
2021/01/28 03:18:15;;;;;;;8.75;4.68;;;;;;;7.72;76.07;98964.59;5055306;28;20052;-81
2021/01/28 03:20:41;;;;;;;9.73;5.13;;;;;;;7.73;76.24;98963.69;5055099;28;20050;-81
2021/01/28 03:23:08;;;;;;;8.35;4.78;;;;;;;7.72;75.98;98960.19;5055031;28;20108;-81
2021/01/28 03:25:36;;;;;;;8.00;4.35;;;;;;;7.73;76.13;98955.81;5055278;28;20076;-81
2021/01/28 03:28:03;;;;;;;8.80;4.88;;;;;;;7.72;75.83;98961.97;5054511;28;20115;-81
2021/01/28 03:30:32;;;;;;;8.50;4.63;;;;;;;7.72;75.97;98961.97;5054867;28;20052;-81
2021/01/28 03:32:59;;;;;;;8.88;4.80;;;;;;;7.72;75.99;98967.22;5054800;28;20056;-81
2021/01/28 03:35:25;;;;;;;10.73;5.50;;;;;;;7.72;75.95;98972.44;5054586;28;20052;-81
2021/01/28 03:37:52;;;;;;;11.60;5.95;;;;;;;7.71;75.80;98960.28;5037642;28;20049;-81
2021/01/28 03:40:23;;;;;;;14.82;7.63;;;;;;;7.71;75.88;98960.28;5054870;28;20102;-81
2021/01/28 03:42:49;;;;;;;17.25;8.35;;;;;;;7.71;76.00;98968.16;5054210;28;20052;-81
2021/01/28 03:45:16;;;;;;;18.27;9.82;;;;;;;7.71;75.88;98952.44;5053465;28;20052;-81
2021/01/28 03:47:42;;;;;;;14.77;9.02;;;;;;;7.70;75.87;98956.81;5054088;28;20049;-81
2021/01/28 03:50:13;;;;;;;19.25;10.15;;;;;;;7.68;75.57;98954.31;5054550;28;20098;-81
2021/01/28 03:52:39;;;;;;;18.67;10.13;;;;;;;7.70;75.81;98948.94;5054541;28;20460;-81
2021/01/28 03:55:06;;;;;;;18.35;9.65;;;;;;;7.68;75.81;98935.13;5054643;28;20056;-81
2021/01/28 03:57:32;;;;;;;17.42;9.23;;;;;;;7.68;75.96;98935.97;5054462;28;20095;-80
2021/01/28 03:59:58;;;;;;;15.95;8.65;;;;;;;7.67;76.09;98931.63;5054566;28;20479;-81
2021/01/28 04:02:24;;;;;;;18.65;9.00;;;;;;;7.68;76.37;98930.72;5054086;28;20115;-81
2021/01/28 04:04:51;;;;;;;18.50;10.15;;;;;;;7.68;76.05;98922.88;5036895;28;20429;-80
2021/01/28 04:07:17;;;;;;;18.85;9.68;;;;;;;7.70;76.11;98920.13;5054141;28;20443;-81
2021/01/28 04:09:43;;;;;;;15.82;9.25;;;;;;;7.69;75.85;98921.94;5054217;28;20049;-81
2021/01/28 04:12:09;;;;;;;17.08;8.93;;;;;;;7.70;75.96;98914.91;5054143;28;20063;-81
2021/01/28 04:14:36;;;;;;;15.27;8.73;;;;;;;7.71;76.16;98910.50;5053932;28;20048;-81
2021/01/28 04:17:02;;;;;;;19.13;8.90;;;;;;;7.72;76.01;98906.97;5053924;28;20485;-81
2021/01/28 04:19:29;;;;;;;15.05;9.05;;;;;;;7.71;75.66;98908.75;5054195;28;20059;-81
2021/01/28 04:21:55;;;;;;;17.98;9.35;;;;;;;7.72;75.91;98904.34;5053954;28;20053;-80
2021/01/28 04:24:21;;;;;;;16.58;9.15;;;;;;;7.72;76.03;98906.97;5054030;28;20098;-81
2021/01/28 04:26:47;;;;;;;11.52;7.75;;;;;;;7.73;75.77;98903.44;5053803;28;20056;-81
2021/01/28 04:29:13;;;;;;;16.65;8.70;;;;;;;7.72;76.05;98897.34;5054015;28;20052;-81
2021/01/28 04:31:39;;;;;;;14.93;8.82;;;;;;;7.72;75.69;98899.09;5054175;28;20049;-81
2021/01/28 04:34:05;;;;;;;19.25;9.43;;;;;;;7.72;75.73;98894.72;5036193;28;20045;-81
2021/01/28 04:36:31;;;;;;;16.85;9.75;;;;;;;7.71;75.70;98898.28;5053640;28;20045;-81
2021/01/28 04:38:57;;;;;;;17.90;8.43;;;;;;;7.71;75.52;98890.41;5053691;28;20566;-81
2021/01/28 04:41:27;;;;;;;12.63;8.23;;;;;;;7.71;75.47;98889.56;5052923;28;20072;-81
2021/01/28 04:43:55;;;;;;;14.20;8.35;;;;;;;7.69;75.24;98889.66;5035598;28;20520;-81
2021/01/28 04:46:29;;;;;;;14.35;8.13;;;;;;;7.65;75.17;98882.91;5053458;28;20052;-81
2021/01/28 04:48:58;;;;;;;13.75;8.15;;;;;;;7.65;75.43;98885.53;5053429;28;20489;-81
2021/01/28 04:51:28;;;;;;;15.52;9.13;;;;;;;7.63;75.23;98897.88;5053553;28;20076;-81
2021/01/28 04:54:22;;;;;;;16.33;8.70;;;;;;;7.58;75.18;98890.28;5053463;28;20053;-80
2021/01/28 04:56:55;;;;;;;13.93;7.45;;;;;;;7.58;75.47;98892.91;5035663;28;20459;-80
2021/01/28 04:59:36;;;;;;;13.90;7.47;;;;;;;7.56;75.68;98894.78;5053552;28;20057;-80
2021/01/28 05:02:07;;;;;;;13.98;8.40;;;;;;;7.57;75.66;98896.47;5035661;28;20068;-80
2021/01/28 05:04:40;;;;;;;11.80;6.97;;;;;;;7.57;75.29;98880.75;5053460;28;20055;-80
2021/01/28 05:07:12;;;;;;;16.52;9.10;;;;;;;7.56;75.50;98879.06;5053117;28;20041;-80
2021/01/28 05:09:38;;;;;;;17.02;8.93;;;;;;;7.56;75.57;98873.81;5035874;28;20056;-80
2021/01/28 05:12:04;;;;;;;14.65;8.35;;;;;;;7.55;75.85;98854.63;5035424;28;20061;-80
2021/01/28 05:14:34;;;;;;;15.00;8.10;;;;;;;7.54;76.15;98849.47;5035519;28;20049;-80
2021/01/28 05:17:04;;;;;;;15.05;8.98;;;;;;;7.54;76.13;98844.25;5053289;28;20052;-80
2021/01/28 05:19:38;;;;;;;15.45;8.20;;;;;;;7.53;75.79;98839.94;5053409;28;20053;-80
2021/01/28 05:22:19;;;;;;;14.27;7.43;;;;;;;7.51;75.57;98831.34;5053208;28;20053;-80
2021/01/28 05:24:49;;;;;;;13.45;7.53;;;;;;;7.53;75.79;98827.72;5053539;28;20444;-80
2021/01/28 05:27:17;;;;;;;13.35;7.47;;;;;;;7.54;75.75;98812.81;5052877;28;20543;-80
2021/01/28 05:29:45;;;;;;;14.55;8.55;;;;;;;7.55;76.01;98819.75;5035488;28;20072;-80
2021/01/28 05:32:34;;;;;;;12.07;6.65;;;;;;;7.53;75.41;98816.38;5053058;28;20049;-80
2021/01/28 05:35:19;;;;;;;13.73;7.40;;;;;;;7.53;75.54;98804.16;5052984;28;20520;-80
2021/01/28 05:37:45;;;;;;;14.43;8.18;;;;;;;7.59;75.74;98802.09;5044904;28;20056;-80
2021/01/28 05:40:21;;;;;;;19.17;9.15;;;;;;;7.55;75.34;98789.16;5035296;28;20045;-80
2021/01/28 05:42:51;;;;;;;16.88;9.68;;;;;;;7.58;75.47;98782.91;5034907;28;20057;-80
2021/01/28 05:45:23;;;;;;;16.92;9.00;;;;;;;7.56;75.38;98787.41;5035491;28;20064;-80
2021/01/28 05:47:51;;;;;;;14.73;8.02;;;;;;;7.56;75.25;98782.16;5053205;28;20049;-80
2021/01/28 05:50:30;;;;;;;14.77;8.02;;;;;;;7.54;75.11;98779.63;5052980;28;20056;-81
2021/01/28 05:53:17;;;;;;;17.13;8.55;;;;;;;7.52;75.16;98778.03;5055381;28;20079;-81
2021/01/28 05:55:44;;;;;;;16.42;8.32;;;;;;;7.54;75.80;98761.31;5039045;28;20060;-81
2021/01/28 05:58:19;;;;;;;14.63;8.32;;;;;;;7.51;75.32;98747.56;5056798;28;20045;-81
2021/01/28 06:00:50;;;;;;;15.18;8.35;;;;;;;7.52;75.60;98739.59;5056764;28;20049;-81
2021/01/28 06:03:31;;;;;;;15.50;7.80;;;;;;;7.53;75.54;98749.16;5056761;28;20052;-81
2021/01/28 06:06:36;;;;;;;13.48;7.68;;;;;;;7.50;75.26;98746.72;5038548;28;20048;-81
2021/01/28 06:09:20;;;;;;;20.05;8.43;;;;;;;7.49;75.14;98739.78;5012624;28;20045;-81
2021/01/28 06:12:09;;;;;;;14.27;7.63;;;;;;;7.48;75.07;98734.66;5056505;28;20136;-81
2021/01/28 06:14:45;;;;;;;9.20;5.30;;;;;;;7.47;74.99;98732.97;5056648;28;20048;-81
2021/01/28 06:17:28;;;;;;;7.50;4.75;;;;;;;7.42;74.91;98731.47;5056340;28;20053;-81
2021/01/28 06:20:15;;;;;;;7.80;4.00;;;;;;;7.37;74.94;98741.34;5056274;28;20496;-81
2021/01/28 06:23:02;;;;;;;10.73;5.18;;;;;;;7.33;74.59;98734.63;5056080;28;20091;-81
2021/01/28 06:26:10;;;;;;;5.50;3.28;;;;;;;7.27;74.53;98733.25;5056403;28;20057;-81
2021/01/28 06:29:14;;;;;;;5.43;3.17;;;;;;;7.25;74.77;98726.41;5056112;28;20056;-80
2021/01/28 06:31:40;;;;;;;9.30;2.85;;;;;;;7.24;75.47;98720.31;5056410;28;20053;-80
2021/01/28 06:34:27;;;;;;;5.65;3.47;;;;;;;7.19;75.34;98714.53;5056034;28;20045;-80
2021/01/28 06:37:18;;;;;;;5.10;2.90;;;;;;;7.13;75.20;98709.66;5038142;28;20103;-80
2021/01/28 06:39:51;;;;;;;5.20;3.20;;;;;;;7.10;75.08;98710.69;5039007;28;20044;-80
2021/01/28 06:42:36;;;;;;;4.70;2.92;;;;;;;7.07;75.04;98700.41;5055836;28;20056;-81
2021/01/28 06:45:10;;;;;;;5.05;2.78;;;;;;;7.06;75.59;98703.94;5038410;28;20044;-80
2021/01/28 06:48:04;;;;;;;9.45;2.80;;;;;;;7.00;75.44;98693.84;5056029;28;20040;-81
2021/01/28 06:50:33;;;;;;;5.55;3.10;;;;;;;7.00;75.33;98689.44;5055822;28;20053;-81
2021/01/28 06:53:20;;;;;;;7.13;3.28;;;;;;;6.97;75.03;98688.78;5056388;28;20052;-80
2021/01/28 06:55:56;;;;;;;6.95;3.10;;;;;;;6.94;75.54;98676.72;5056621;28;20053;-81
2021/01/28 06:58:25;;;;;;;5.47;2.83;;;;;;;6.93;75.33;98677.69;5055628;28;20045;-81
2021/01/28 07:01:23;;;;;;;8.15;3.53;;;;;;;6.88;75.26;98671.88;5056365;28;20052;-81
2021/01/28 07:03:59;;;;;;;4.45;2.80;;;;;;;6.86;75.53;98669.34;5040727;28;20049;-80
2021/01/28 07:06:33;;;;;;;6.78;3.13;;;;;;;6.86;75.64;98665.88;5055481;28;20060;-80
2021/01/28 07:09:23;;;;;;;5.35;3.42;;;;;;;6.78;75.54;98664.56;5055881;28;20053;-81
2021/01/28 07:11:56;;;;;;;6.53;3.70;;;;;;;6.80;75.69;98658.41;5055857;28;20060;-81
2021/01/28 07:14:23;;;;;;;9.07;3.63;;;;;;;6.80;76.30;98659.22;5055602;28;20049;-80
2021/01/28 07:16:59;;;;;;;7.85;3.92;;;;;;;6.77;75.82;98657.63;5037751;28;20045;-80
2021/01/28 07:19:30;;;;;;;5.68;3.90;;;;;;;6.78;76.07;98641.00;5055260;28;20049;-80
2021/01/28 07:21:57;;;;;;;7.65;4.72;;;;;;;6.80;76.12;98638.31;5055210;28;20049;-81
2021/01/28 07:24:23;;;;;;;6.97;4.15;;;;;;;6.80;76.10;98637.50;5055384;28;20083;-81
2021/01/28 07:26:55;;;;;;;7.85;4.78;;;;;;;6.78;75.94;98640.19;5095444;22;20052;-85
2021/01/28 07:29:31;;;;;;;10.63;5.43;;;;;;;6.76;75.64;98636.81;5038147;28;20057;-85
2021/01/28 07:31:58;;;;;;;8.10;5.10;;;;;;;6.78;76.04;98645.41;5038312;28;20283;-83
2021/01/28 07:34:25;;;;;;;9.35;5.65;;;;;;;6.77;76.07;98651.59;5055726;28;20056;-84
2021/01/28 07:36:59;;;;;;;15.25;5.82;;;;;;;6.75;76.15;98648.22;5038487;28;20049;-85
2021/01/28 07:39:28;;;;;;;9.82;5.90;;;;;;;6.76;75.97;98645.50;5055219;28;20049;-86
2021/01/28 07:42:00;;;;;;;8.18;5.68;;;;;;;6.77;76.16;98635.91;5037951;28;20481;-83
2021/01/28 07:44:26;;;;;;;12.30;6.20;;;;;;;6.78;76.29;98642.81;5038549;28;20044;-84
2021/01/28 07:46:53;;;;;;;10.77;6.60;;;;;;;6.76;76.09;98637.66;5037795;28;20124;-85
2021/01/28 07:49:23;;;;;;;11.13;6.63;;;;;;;6.76;76.16;98631.56;5037682;28;20140;-84
2021/01/28 07:52:15;;;;;;;10.95;6.72;;;;;;;6.72;75.70;98627.47;5037918;28;20110;-85
2021/01/28 07:54:49;;;;;;;14.25;6.93;;;;;;;6.73;75.85;98623.94;5037471;28;20052;-85
2021/01/28 07:57:27;;;;;;;12.98;7.32;;;;;;;6.72;75.85;98617.00;5037533;28;20118;-84
2021/01/28 07:59:57;;;;;;;12.63;7.72;;;;;;;6.72;76.38;98607.38;5037346;28;20045;-85
2021/01/28 08:02:35;;;;;;;15.05;8.18;;;;;;;6.71;76.08;98617.94;5039206;28;20052;-86
2021/01/28 08:05:05;;;;;;;15.45;8.27;;;;;;;6.70;76.25;98619.72;5037781;28;20497;-84
2021/01/28 08:07:34;;;;;;;16.67;8.50;;;;;;;6.71;76.62;98600.47;5057080;28;20083;-85
2021/01/28 08:10:20;;;;;;;16.23;9.50;;;;;;;6.71;76.34;98599.63;5055289;28;20045;-84
2021/01/28 08:12:54;;;;;;;21.38;9.00;;;;;;;6.71;76.49;98589.16;5037479;28;20048;-85
2021/01/28 08:15:31;;;;;;;66.50;10.73;;;;;;;6.70;76.25;98585.72;5030786;28;20541;-83
2021/01/28 08:18:17;;;;;;;41.20;8.98;;;;;;;6.72;76.25;98581.22;5027844;28;20049;-84
2021/01/28 08:20:44;;;;;;;43.35;7.38;;;;;;;6.73;76.58;98571.63;5037373;28;20452;-85
2021/01/28 08:23:29;;;;;;;21.38;6.70;;;;;;;6.69;75.81;98560.50;5037042;28;20048;-84
2021/01/28 08:26:04;;;;;;;11.13;6.55;;;;;;;6.69;75.75;98552.66;5032522;28;20068;-83
2021/01/28 08:28:34;;;;;;;9.32;6.15;;;;;;;6.68;76.13;98558.81;5036570;28;20111;-86
2021/01/28 08:31:04;;;;;;;11.85;6.28;;;;;;;6.67;76.18;98548.44;5054157;28;20136;-86
2021/01/28 08:33:30;;;;;;;10.75;6.43;;;;;;;6.63;75.97;98537.34;5035260;28;20405;-86
2021/01/28 08:36:01;;;;;;;9.88;6.28;;;;;;;6.58;75.83;98535.00;5035714;28;20598;-86
2021/01/28 08:38:34;;;;;;;9.57;6.25;;;;;;;6.54;75.56;98523.03;5053597;28;20071;-85
2021/01/28 08:41:05;;;;;;;12.00;5.95;;;;;;;6.52;75.87;98522.31;5053232;28;20053;-85
2021/01/28 08:43:32;;;;;;;10.73;6.07;;;;;;;6.48;75.85;98521.66;5052844;28;20049;-86
2021/01/28 08:46:06;;;;;;;9.77;5.55;;;;;;;6.42;75.89;98523.78;5053121;28;20049;-85
2021/01/28 08:48:34;;;;;;;9.75;5.82;;;;;;;6.41;75.86;98520.34;5036186;28;20041;-86
2021/01/28 08:51:23;;;;;;;9.07;5.78;;;;;;;6.32;75.66;98526.94;5035530;28;20049;-86
2021/01/28 08:54:25;;;;;;;9.52;6.03;;;;;;;6.29;75.74;98519.28;5052515;28;20049;-85
2021/01/28 08:56:56;;;;;;;9.70;6.07;;;;;;;6.28;76.18;98525.44;5035190;28;20048;-86
2021/01/28 08:59:30;;;;;;;12.07;6.68;;;;;;;6.25;76.29;98517.78;5053124;28;20049;-86
2021/01/28 09:01:57;;;;;;;10.25;6.70;;;;;;;6.23;76.20;98517.88;5052967;28;20131;-86
2021/01/28 09:04:34;;;;;;;9.65;6.05;;;;;;;6.19;76.33;98510.31;5035739;28;20052;-86
2021/01/28 09:07:00;;;;;;;9.02;6.18;;;;;;;6.19;76.44;98508.53;5035675;28;20045;-86
2021/01/28 09:09:32;;;;;;;8.75;5.75;;;;;;;6.16;76.51;98498.25;5035408;28;20095;-86
2021/01/28 09:12:27;;;;;;;7.65;4.78;;;;;;;6.11;76.07;98493.31;5035375;28;20413;-86
2021/01/28 09:15:15;;;;;;;8.73;5.18;;;;;;;6.12;76.30;98491.53;5035519;28;20053;-85
2021/01/28 09:17:43;;;;;;;10.55;4.93;;;;;;;6.12;76.60;98489.78;5052502;28;20052;-85
2021/01/28 09:20:30;;;;;;;7.50;4.25;;;;;;;6.09;76.36;98495.16;5037297;28;20190;-86
2021/01/28 09:23:18;;;;;;;10.85;4.57;;;;;;;6.07;76.46;98486.59;5034859;28;20053;-85
2021/01/28 09:25:47;;;;;;;7.85;4.43;;;;;;;6.09;76.46;98484.72;5027867;28;20049;-85
2021/01/28 09:28:20;;;;;;;12.07;5.45;;;;;;;6.07;76.34;98477.91;5056095;28;20049;-85
2021/01/28 09:30:49;;;;;;;7.57;5.00;;;;;;;6.06;76.73;98482.28;5043448;28;20057;-84
2021/01/28 09:33:36;;;;;;;8.50;5.28;;;;;;;6.03;76.54;98479.88;5019787;28;20057;-84
2021/01/28 09:36:10;;;;;;;10.35;5.05;;;;;;;6.05;76.75;98485.00;5020637;28;20051;-85
2021/01/28 09:38:39;;;;;;;10.40;5.75;;;;;;;6.05;76.71;98477.19;5019929;28;20049;-85
2021/01/28 09:41:09;;;;;;;10.15;5.30;;;;;;;6.05;76.51;98485.00;5037955;28;20096;-85
2021/01/28 09:43:35;;;;;;;12.32;6.03;;;;;;;6.05;76.91;98480.59;5037328;28;20050;-85
2021/01/28 09:46:29;;;;;;;8.93;5.65;;;;;;;6.02;76.66;98479.94;5019803;28;20049;-83
2021/01/28 09:49:01;;;;;;;9.30;5.22;;;;;;;6.04;76.68;98478.09;5012424;28;20152;-85
2021/01/28 09:51:35;;;;;;;9.68;5.38;;;;;;;6.04;76.69;98473.72;5036893;28;20049;-85
2021/01/28 09:54:22;;;;;;;8.23;5.55;;;;;;;6.02;76.54;98467.69;5036712;28;20552;-84
2021/01/28 09:56:49;;;;;;;8.35;5.47;;;;;;;6.05;76.72;98470.16;5036441;28;20084;-86
2021/01/28 09:59:15;;;;;;;9.73;5.63;;;;;;;6.05;76.81;98472.78;5019613;28;20053;-84
2021/01/28 10:01:43;;;;;;;9.60;5.68;;;;;;;6.04;76.63;98465.88;5036814;28;20060;-84
2021/01/28 10:04:11;;;;;;;12.23;6.65;;;;;;;6.04;76.66;98460.66;5036375;28;20548;-85
2021/01/28 10:06:39;;;;;;;13.45;6.07;;;;;;;6.04;76.98;98452.81;5018855;28;20139;-85
2021/01/28 10:09:06;;;;;;;11.30;6.10;;;;;;;6.04;76.94;98465.88;5036392;28;20111;-84
2021/01/28 10:11:32;;;;;;;10.85;6.13;;;;;;;6.04;76.65;98458.03;5019044;28;20057;-84
2021/01/28 10:14:00;;;;;;;8.68;5.68;;;;;;;6.04;76.47;98454.56;5026480;28;20049;-85
2021/01/28 10:16:27;;;;;;;9.05;5.88;;;;;;;6.02;76.51;98446.78;5056119;28;20053;-84
2021/01/28 10:18:54;;;;;;;10.48;5.93;;;;;;;6.02;76.66;98449.41;5038621;28;20049;-84
2021/01/28 10:21:20;;;;;;;12.18;6.72;;;;;;;6.01;76.68;98442.50;5026114;28;20045;-85
2021/01/28 10:23:47;;;;;;;13.02;6.93;;;;;;;6.00;76.50;98444.28;5035716;28;20053;-86
2021/01/28 10:26:13;;;;;;;10.82;6.00;;;;;;;5.99;76.73;98445.19;5018046;28;20049;-85
2021/01/28 10:28:40;;;;;;;10.20;6.28;;;;;;;6.00;76.94;98438.22;5036811;28;20494;-84
2021/01/28 10:31:06;;;;;;;8.75;6.03;;;;;;;5.99;76.51;98434.75;5035879;28;20041;-83
2021/01/28 10:33:35;;;;;;;8.23;5.40;;;;;;;5.98;76.87;98432.25;5035146;28;20541;-85
2021/01/28 10:36:02;;;;;;;11.10;5.88;;;;;;;5.98;76.92;98429.66;5018406;28;20049;-85
2021/01/28 10:38:28;;;;;;;8.98;5.50;;;;;;;5.97;76.62;98430.56;5017784;28;20437;-86
2021/01/28 10:40:55;;;;;;;8.40;5.72;;;;;;;5.97;76.43;98430.56;5018165;28;20473;-86
2021/01/28 10:43:23;;;;;;;8.30;5.30;;;;;;;5.96;76.71;98429.72;5017717;28;20052;-86
2021/01/28 10:45:50;;;;;;;7.53;4.95;;;;;;;5.95;76.56;98422.81;5018060;28;20059;-85
2021/01/28 10:48:17;;;;;;;9.38;5.00;;;;;;;5.95;76.54;98422.00;5018255;28;20088;-85
2021/01/28 10:50:44;;;;;;;7.28;4.53;;;;;;;5.94;76.38;98418.53;5035133;28;20104;-86
2021/01/28 10:53:12;;;;;;;9.93;4.90;;;;;;;5.93;76.03;98421.22;5017581;28;20059;-85
2021/01/28 10:55:38;;;;;;;11.30;5.15;;;;;;;5.89;76.27;98417.97;5018298;28;20057;-85
2021/01/28 10:58:09;;;;;;;6.93;4.22;;;;;;;5.87;76.07;98417.22;5018420;28;20099;-85
2021/01/28 11:00:36;;;;;;;6.50;3.85;;;;;;;5.85;76.10;98413.84;5035938;28;20050;-85
2021/01/28 11:03:03;;;;;;;6.47;3.60;;;;;;;5.83;75.98;98410.50;5028865;28;20056;-85
2021/01/28 11:05:33;;;;;;;8.18;3.30;;;;;;;5.81;76.04;98407.97;5036332;28;20045;-85
2021/01/28 11:08:00;;;;;;;4.63;2.72;;;;;;;5.79;75.92;98404.59;5054318;28;20075;-85
2021/01/28 11:10:28;;;;;;;5.97;2.53;;;;;;;5.77;76.03;98400.41;5037006;28;20060;-85
2021/01/28 11:12:56;;;;;;;4.30;2.53;;;;;;;5.73;75.72;98394.53;5036339;28;20052;-85
2021/01/28 11:15:25;;;;;;;4.22;2.30;;;;;;;5.70;75.73;98397.31;5054645;28;20049;-85
2021/01/28 11:17:51;;;;;;;4.22;2.47;;;;;;;5.68;75.76;98389.56;5036559;28;20045;-85
2021/01/28 11:20:19;;;;;;;3.30;2.47;;;;;;;5.66;75.89;98390.59;5054480;28;20155;-85
2021/01/28 11:22:45;;;;;;;7.00;2.70;;;;;;;5.63;75.83;98388.16;5046045;28;20060;-86
2021/01/28 11:25:19;;;;;;;7.35;3.17;;;;;;;5.58;75.47;98391.88;5054342;28;20056;-85
2021/01/28 11:27:48;;;;;;;5.88;2.72;;;;;;;5.56;75.77;98380.69;5054347;28;20131;-82
2021/01/28 11:30:17;;;;;;;4.25;2.65;;;;;;;5.54;75.82;98382.56;5054045;28;20522;-84
2021/01/28 11:32:43;;;;;;;5.32;2.67;;;;;;;5.53;76.18;98377.44;5036040;28;20366;-83
2021/01/28 11:35:11;;;;;;;4.22;2.53;;;;;;;5.52;76.14;98379.19;5054309;28;20140;-82
2021/01/28 11:37:37;;;;;;;4.07;2.53;;;;;;;5.52;76.15;98373.97;5053777;28;20428;-83
2021/01/28 11:40:06;;;;;;;6.10;2.92;;;;;;;5.52;76.07;98380.94;5036477;28;20079;-83
2021/01/28 11:42:32;;;;;;;4.15;3.00;;;;;;;5.52;76.21;98373.97;5036244;28;20150;-84
2021/01/28 11:44:58;;;;;;;4.10;2.70;;;;;;;5.53;76.05;98370.44;5053541;28;20245;-83
2021/01/28 11:47:26;;;;;;;7.47;3.00;;;;;;;5.52;75.91;98366.16;5053654;28;20072;-83
2021/01/28 11:49:52;;;;;;;5.03;2.97;;;;;;;5.53;75.73;98370.44;5053164;28;20493;-83
2021/01/28 11:52:19;;;;;;;4.65;3.17;;;;;;;5.51;75.85;98372.31;5053076;28;20099;-83
2021/01/28 11:54:45;;;;;;;5.45;3.15;;;;;;;5.50;75.59;98367.16;5053366;28;20106;-83
2021/01/28 11:57:11;;;;;;;4.97;3.58;;;;;;;5.47;75.78;98368.19;5053353;28;20176;-82